createdAt,value
2023-04-19T00:02:40.984Z,7.87
2023-04-19T00:05:30.337Z,7.17
2023-04-19T00:08:17.985Z,6.17
2023-04-19T00:11:05.711Z,5.70
2023-04-19T00:13:53.242Z,7.43
2023-04-19T00:16:41.224Z,7.83
2023-04-19T00:19:28.813Z,8.07
2023-04-19T00:22:17.437Z,8.07
2023-04-19T00:25:05.834Z,7.67
2023-04-19T00:27:53.360Z,7.00
2023-04-19T00:30:40.931Z,6.60
2023-04-19T00:33:28.502Z,7.80
2023-04-19T00:36:15.948Z,6.73
2023-04-19T00:39:03.863Z,9.70
2023-04-19T00:41:51.391Z,7.20
2023-04-19T00:44:38.809Z,9.47
2023-04-19T00:47:26.426Z,11.33
2023-04-19T00:50:14.376Z,9.43
2023-04-19T00:53:02.700Z,8.70
2023-04-19T00:55:53.177Z,9.03
2023-04-19T00:58:40.806Z,7.70
2023-04-19T01:01:29.228Z,8.50
2023-04-19T01:04:17.475Z,9.70
2023-04-19T01:07:07.131Z,7.10
2023-04-19T01:09:54.694Z,8.07
2023-04-19T01:12:42.472Z,9.60
2023-04-19T01:15:31.576Z,8.70
2023-04-19T01:18:19.798Z,7.33
2023-04-19T01:21:09.280Z,7.73
2023-04-19T01:23:56.834Z,8.87
2023-04-19T01:26:44.406Z,8.03
2023-04-19T01:29:31.955Z,7.47
2023-04-19T01:32:19.482Z,9.43
2023-04-19T01:35:07.820Z,8.17
2023-04-19T01:37:56.543Z,8.87
2023-04-19T01:40:45.185Z,7.37
2023-04-19T01:43:32.853Z,7.67
2023-04-19T01:46:20.672Z,7.37
2023-04-19T01:49:08.863Z,8.37
2023-04-19T01:51:56.423Z,8.30
2023-04-19T01:54:43.912Z,7.70
2023-04-19T01:57:31.416Z,4.73
2023-04-19T02:00:19.232Z,5.83
2023-04-19T02:03:06.827Z,6.23
2023-04-19T02:05:54.338Z,5.53
2023-04-19T02:08:43.049Z,5.00
2023-04-19T02:11:30.645Z,5.50
2023-04-19T02:14:18.348Z,6.13
2023-04-19T02:17:06.048Z,4.73
2023-04-19T02:19:54.020Z,5.03
2023-04-19T02:22:41.607Z,5.33
2023-04-19T02:25:29.131Z,5.03
2023-04-19T02:28:16.637Z,6.13
2023-04-19T02:31:07.693Z,5.57
2023-04-19T02:33:55.134Z,4.93
2023-04-19T02:36:42.674Z,5.07
2023-04-19T02:39:30.180Z,5.00
2023-04-19T02:42:17.663Z,5.50
2023-04-19T02:45:06.002Z,5.73
2023-04-19T02:47:53.560Z,5.50
2023-04-19T02:50:40.983Z,5.20
2023-04-19T02:53:28.671Z,8.17
2023-04-19T02:56:16.588Z,7.50
2023-04-19T02:59:05.201Z,5.37
2023-04-19T03:01:52.631Z,6.20
2023-04-19T03:04:40.100Z,7.00
2023-04-19T03:07:27.533Z,6.33
2023-04-19T03:10:15.170Z,6.23
2023-04-19T03:13:02.618Z,5.90
2023-04-19T03:15:51.161Z,5.53
2023-04-19T03:18:38.650Z,4.77
2023-04-19T03:21:27.511Z,6.73
2023-04-19T03:24:15.375Z,7.87
2023-04-19T03:27:03.892Z,6.77
2023-04-19T03:29:51.309Z,6.83
2023-04-19T03:32:38.822Z,5.87
2023-04-19T03:35:26.636Z,5.73
2023-04-19T03:38:14.158Z,5.97
2023-04-19T03:41:01.586Z,5.27
2023-04-19T03:43:49.247Z,5.43
2023-04-19T03:46:36.766Z,4.73
2023-04-19T03:49:24.339Z,5.57
2023-04-19T03:52:11.812Z,5.63
2023-04-19T03:54:59.338Z,5.57
2023-04-19T03:57:46.805Z,6.43
2023-04-19T04:00:37.371Z,5.47
2023-04-19T04:03:25.082Z,6.10
2023-04-19T04:06:12.957Z,5.10
2023-04-19T04:09:00.844Z,4.87
2023-04-19T04:11:48.395Z,4.63
2023-04-19T04:14:37.160Z,4.90
2023-04-19T04:17:24.813Z,5.60
2023-04-19T04:20:13.666Z,6.30
2023-04-19T04:23:01.498Z,6.37
2023-04-19T04:26:01.113Z,6.10
2023-04-19T04:28:49.416Z,5.10
2023-04-19T04:31:37.047Z,6.00
2023-04-19T04:34:24.854Z,5.03
2023-04-19T04:37:12.705Z,5.07
2023-04-19T04:40:01.872Z,5.77
2023-04-19T04:42:49.635Z,4.60
2023-04-19T04:45:38.021Z,4.37
2023-04-19T04:48:26.496Z,6.50
2023-04-19T04:51:14.003Z,5.07
2023-04-19T04:54:01.502Z,5.00
2023-04-19T04:56:49.421Z,5.70
2023-04-19T04:59:37.526Z,5.17
2023-04-19T05:02:25.746Z,5.00
2023-04-19T05:05:13.716Z,5.57
2023-04-19T05:08:01.353Z,5.43
2023-04-19T05:10:49.096Z,4.80
2023-04-19T05:13:36.543Z,5.30
2023-04-19T05:16:24.103Z,6.07
2023-04-19T05:19:11.601Z,5.97
2023-04-19T05:21:59.100Z,5.57
2023-04-19T05:24:47.396Z,6.03
2023-04-19T05:27:34.935Z,4.77
2023-04-19T05:30:22.440Z,7.13
2023-04-19T05:33:10.031Z,6.57
2023-04-19T05:35:57.479Z,6.37
2023-04-19T05:38:45.941Z,6.73
2023-04-19T05:41:33.481Z,5.80
2023-04-19T05:44:20.993Z,7.60
2023-04-19T05:47:09.040Z,5.97
2023-04-19T05:49:56.690Z,6.20
2023-04-19T05:52:44.234Z,6.20
2023-04-19T05:55:31.920Z,7.70
2023-04-19T05:58:19.514Z,8.10
2023-04-19T06:01:07.426Z,6.87
2023-04-19T06:03:55.085Z,7.00
2023-04-19T06:06:42.905Z,8.13
2023-04-19T06:09:30.501Z,8.17
2023-04-19T06:12:17.971Z,8.90
2023-04-19T06:15:06.662Z,8.03
2023-04-19T06:17:54.110Z,7.37
2023-04-19T06:20:41.608Z,7.67
2023-04-19T06:23:29.055Z,8.13
2023-04-19T06:26:16.529Z,8.97
2023-04-19T06:29:04.235Z,9.80
2023-04-19T06:31:51.985Z,9.47
2023-04-19T06:34:39.608Z,8.27
2023-04-19T06:37:27.314Z,8.47
2023-04-19T06:40:14.807Z,8.33
2023-04-19T06:43:02.368Z,10.60
2023-04-19T06:46:05.095Z,9.90
2023-04-19T06:48:52.817Z,8.00
2023-04-19T06:51:40.374Z,10.77
2023-04-19T06:54:27.862Z,10.53
2023-04-19T06:57:17.322Z,9.13
2023-04-19T07:00:06.988Z,8.77
2023-04-19T07:02:54.680Z,9.03
2023-04-19T07:05:42.169Z,10.13
2023-04-19T07:08:42.374Z,9.70
2023-04-19T07:11:36.084Z,9.47
2023-04-19T07:14:24.196Z,9.67
2023-04-19T07:17:13.192Z,8.27
2023-04-19T07:20:00.692Z,8.83
2023-04-19T07:22:48.372Z,8.90
2023-04-19T07:25:35.823Z,9.97
2023-04-19T07:28:23.346Z,8.93
2023-04-19T07:31:16.963Z,9.33
2023-04-19T07:34:04.475Z,8.23
2023-04-19T07:36:52.036Z,9.23
2023-04-19T07:39:40.121Z,7.83
2023-04-19T07:42:30.202Z,9.00
2023-04-19T07:45:17.809Z,7.00
2023-04-19T07:48:05.848Z,7.50
2023-04-19T07:50:53.864Z,9.17
2023-04-19T07:53:43.431Z,6.53
2023-04-19T07:56:30.954Z,7.53
2023-04-19T07:59:18.455Z,8.07
2023-04-19T08:02:07.682Z,7.63
2023-04-19T08:04:55.808Z,8.27
2023-04-19T08:07:44.544Z,7.53
2023-04-19T08:10:32.146Z,10.23
2023-04-19T08:13:19.679Z,7.23
2023-04-19T08:18:57.572Z,8.33
2023-04-19T08:21:45.122Z,7.60
2023-04-19T08:24:32.641Z,8.77
2023-04-19T08:27:22.024Z,8.70
2023-04-19T08:30:10.985Z,7.97
2023-04-19T08:32:58.605Z,7.77
2023-04-19T08:35:46.220Z,7.30
2023-04-19T08:38:33.758Z,8.00
2023-04-19T08:41:23.417Z,8.13
2023-04-19T08:44:25.319Z,8.03
2023-04-19T08:47:29.610Z,8.20
2023-04-19T08:50:32.554Z,7.23
2023-04-19T08:53:25.449Z,7.30
2023-04-19T08:56:24.345Z,7.53
2023-04-19T08:59:22.057Z,7.40
2023-04-19T09:02:09.979Z,5.37
2023-04-19T09:04:57.765Z,7.20
2023-04-19T09:07:47.265Z,6.27
2023-04-19T09:10:34.988Z,6.40
2023-04-19T09:13:23.227Z,7.37
2023-04-19T09:16:25.448Z,7.87
2023-04-19T09:19:23.375Z,6.43
2023-04-19T09:22:16.157Z,8.43
2023-04-19T09:27:55.742Z,7.27
2023-04-19T09:30:57.903Z,8.80
2023-04-19T09:33:48.048Z,6.60
2023-04-19T09:36:35.542Z,7.27
2023-04-19T09:39:33.644Z,7.63
2023-04-19T09:42:42.376Z,9.03
2023-04-19T09:45:43.601Z,7.57
2023-04-19T09:48:31.215Z,7.03
2023-04-19T09:51:18.715Z,6.87
2023-04-19T09:54:06.476Z,5.53
2023-04-19T09:56:57.023Z,6.53
2023-04-19T09:59:45.526Z,6.17
2023-04-19T10:02:34.437Z,5.30
2023-04-19T10:05:24.282Z,5.10
2023-04-19T10:08:14.970Z,4.17
2023-04-19T10:11:02.672Z,3.70
2023-04-19T10:13:56.335Z,3.37
2023-04-19T10:16:44.119Z,4.47
2023-04-19T10:19:36.343Z,4.17
2023-04-19T10:22:24.831Z,3.30
2023-04-19T10:25:15.844Z,3.13
2023-04-19T10:28:03.403Z,3.27
2023-04-19T10:30:59.019Z,3.30
2023-04-19T10:33:48.225Z,3.37
2023-04-19T10:36:36.290Z,3.00
2023-04-19T10:39:45.542Z,3.23
2023-04-19T10:43:10.730Z,2.63
2023-04-19T10:46:10.364Z,3.67
2023-04-19T10:49:00.428Z,4.00
2023-04-19T10:51:53.420Z,2.70
2023-04-19T10:54:40.846Z,2.60
2023-04-19T10:57:28.482Z,2.27
2023-04-19T11:00:21.570Z,2.13
2023-04-19T11:03:46.387Z,2.27
2023-04-19T11:06:35.423Z,2.20
2023-04-19T11:09:34.600Z,2.17
2023-04-19T11:12:22.827Z,2.43
2023-04-19T11:15:11.962Z,2.87
2023-04-19T11:18:12.119Z,2.83
2023-04-19T11:21:01.344Z,2.60
2023-04-19T11:23:50.209Z,2.53
2023-04-19T11:26:37.891Z,2.43
2023-04-19T11:29:25.517Z,2.00
2023-04-19T11:32:13.017Z,1.60
2023-04-19T11:35:09.974Z,2.07
2023-04-19T11:38:00.018Z,2.93
2023-04-19T11:40:47.627Z,2.30
2023-04-19T11:43:38.557Z,3.20
2023-04-19T11:46:26.544Z,3.10
2023-04-19T11:49:30.526Z,2.53
2023-04-19T11:52:26.567Z,3.57
2023-04-19T11:55:20.967Z,3.07
2023-04-19T11:58:11.519Z,3.10
2023-04-19T12:01:13.723Z,2.90
2023-04-19T12:04:05.386Z,2.20
2023-04-19T12:07:01.394Z,2.43
2023-04-19T12:09:49.846Z,2.50
2023-04-19T12:12:38.806Z,2.63
2023-04-19T12:15:46.737Z,2.97
2023-04-19T12:18:49.882Z,2.83
2023-04-19T12:21:37.421Z,2.80
2023-04-19T12:24:24.994Z,2.70
2023-04-19T12:27:17.799Z,2.80
2023-04-19T12:30:07.362Z,2.30
2023-04-19T12:32:56.311Z,2.53
2023-04-19T12:35:45.049Z,2.97
2023-04-19T12:38:32.528Z,2.27
2023-04-19T12:41:19.970Z,3.27
2023-04-19T12:44:07.446Z,2.97
2023-04-19T12:46:57.710Z,2.63
2023-04-19T12:49:45.436Z,3.43
2023-04-19T12:52:33.548Z,2.63
2023-04-19T12:55:21.123Z,3.67
2023-04-19T12:58:08.600Z,2.53
2023-04-19T13:00:56.171Z,2.43
2023-04-19T13:03:43.779Z,2.37
2023-04-19T13:06:31.462Z,2.57
2023-04-19T13:09:19.181Z,1.87
2023-04-19T13:12:07.074Z,2.50
2023-04-19T13:14:54.850Z,1.70
2023-04-19T13:17:42.364Z,2.03
2023-04-19T13:20:29.849Z,1.87
2023-04-19T13:23:17.297Z,2.23
2023-04-19T13:26:05.052Z,1.90
2023-04-19T13:28:53.265Z,2.63
2023-04-19T13:31:43.950Z,2.80
2023-04-19T13:34:31.575Z,2.70
2023-04-19T13:37:19.099Z,2.37
2023-04-19T13:40:18.847Z,2.07
2023-04-19T13:43:07.016Z,2.23
2023-04-19T13:45:56.669Z,2.20
2023-04-19T13:48:44.240Z,1.70
2023-04-19T13:51:42.818Z,2.30
2023-04-19T13:54:36.894Z,5.60
2023-04-19T13:57:24.375Z,2.50
2023-04-19T14:00:12.574Z,2.63
2023-04-19T14:03:00.410Z,2.23
2023-04-19T14:05:48.240Z,2.50
2023-04-19T14:08:35.777Z,2.17
2023-04-19T14:11:25.111Z,2.10
2023-04-19T14:14:12.641Z,3.10
2023-04-19T14:17:00.048Z,1.83
2023-04-19T14:19:47.604Z,2.57
2023-04-19T14:22:35.582Z,2.97
2023-04-19T14:25:23.314Z,4.63
2023-04-19T14:28:12.861Z,2.93
2023-04-19T14:31:00.391Z,4.27
2023-04-19T14:33:47.909Z,2.63
2023-04-19T14:36:35.407Z,4.13
2023-04-19T14:39:22.910Z,3.70
2023-04-19T14:42:10.360Z,4.43
2023-04-19T14:44:59.107Z,4.77
2023-04-19T14:47:46.824Z,3.73
2023-04-19T14:50:34.275Z,4.53
2023-04-19T14:53:21.723Z,4.70
2023-04-19T14:56:09.478Z,3.97
2023-04-19T14:58:56.977Z,4.40
2023-04-19T15:01:44.669Z,4.57
2023-04-19T15:04:38.086Z,4.13
2023-04-19T15:07:28.503Z,4.57
2023-04-19T15:10:16.049Z,5.43
2023-04-19T15:13:04.954Z,4.10
2023-04-19T15:15:52.525Z,3.67
2023-04-19T15:18:40.107Z,4.37
2023-04-19T15:21:28.325Z,4.60
2023-04-19T15:24:15.920Z,4.23
2023-04-19T15:27:04.239Z,3.87
2023-04-19T15:29:51.772Z,4.70
2023-04-19T15:32:39.447Z,3.70
2023-04-19T15:35:27.621Z,3.17
2023-04-19T15:38:15.258Z,3.57
2023-04-19T15:41:02.712Z,3.37
2023-04-19T15:43:50.208Z,4.07
2023-04-19T15:46:37.732Z,2.63
2023-04-19T15:49:25.270Z,2.30
2023-04-19T15:52:12.790Z,2.73
2023-04-19T15:55:00.271Z,2.17
2023-04-19T15:57:49.974Z,1.97
2023-04-19T16:00:37.435Z,2.57
2023-04-19T16:03:25.130Z,3.07
2023-04-19T16:06:12.719Z,3.43
2023-04-19T16:09:00.286Z,2.80
2023-04-19T16:11:47.734Z,2.20
2023-04-19T16:14:35.429Z,2.43
2023-04-19T16:17:23.278Z,2.03
2023-04-19T16:20:11.105Z,2.87
2023-04-19T16:22:59.194Z,3.07
2023-04-19T16:25:46.970Z,2.77
2023-04-19T16:28:34.508Z,3.77
2023-04-19T16:31:22.226Z,2.63
2023-04-19T16:34:09.731Z,2.77
2023-04-19T16:36:57.458Z,2.87
2023-04-19T16:39:44.940Z,3.50
2023-04-19T16:42:32.618Z,3.47
2023-04-19T16:45:20.060Z,4.13
2023-04-19T16:48:07.535Z,5.30
2023-04-19T16:50:55.037Z,4.10
2023-04-19T16:53:43.662Z,4.67
2023-04-19T16:56:31.228Z,4.37
2023-04-19T16:59:18.915Z,5.40
2023-04-19T17:02:08.160Z,4.67
2023-04-19T17:04:56.941Z,4.40
2023-04-19T17:07:44.498Z,5.27
2023-04-19T17:10:32.035Z,4.40
2023-04-19T17:13:19.525Z,3.87
2023-04-19T17:16:07.784Z,4.53
2023-04-19T17:18:56.521Z,3.20
2023-04-19T17:21:44.295Z,3.60
2023-04-19T17:24:33.526Z,3.53
2023-04-19T17:27:20.994Z,3.70
2023-04-19T17:30:09.177Z,3.00
2023-04-19T17:32:56.826Z,2.87
2023-04-19T17:35:44.351Z,3.00
2023-04-19T17:38:32.544Z,3.70
2023-04-19T17:41:20.317Z,2.63
2023-04-19T17:44:08.025Z,3.63
2023-04-19T17:46:55.596Z,2.97
2023-04-19T17:49:46.241Z,2.87
2023-04-19T17:52:34.670Z,2.23
2023-04-19T17:55:22.373Z,2.40
2023-04-19T17:58:09.862Z,2.57
2023-04-19T18:00:57.389Z,2.87
2023-04-19T18:03:45.038Z,3.07
2023-04-19T18:06:32.815Z,2.57
2023-04-19T18:09:20.672Z,3.37
2023-04-19T18:12:08.359Z,2.97
2023-04-19T18:14:55.784Z,2.93
2023-04-19T18:17:43.266Z,2.17
2023-04-19T18:20:31.340Z,2.60
2023-04-19T18:23:18.834Z,2.80
2023-04-19T18:26:06.435Z,2.80
2023-04-19T18:28:53.898Z,2.23
2023-04-19T18:31:41.967Z,2.43
2023-04-19T18:34:29.452Z,2.97
2023-04-19T18:37:17.836Z,2.50
2023-04-19T18:40:07.384Z,3.00
2023-04-19T18:42:55.320Z,3.40
2023-04-19T18:45:42.817Z,3.10
2023-04-19T18:48:30.515Z,3.00
2023-04-19T18:51:17.988Z,3.37
2023-04-19T18:54:05.756Z,4.10
2023-04-19T18:59:46.003Z,4.13
2023-04-19T19:02:34.559Z,3.63
2023-04-19T19:05:22.405Z,3.50
2023-04-19T19:08:10.032Z,4.03
2023-04-19T19:11:25.178Z,3.83
2023-04-19T19:14:05.059Z,4.50
2023-04-19T19:16:53.061Z,3.80
2023-04-19T19:19:40.619Z,3.37
2023-04-19T19:22:29.030Z,3.57
2023-04-19T19:25:16.883Z,4.10
2023-04-19T19:28:09.244Z,5.23
2023-04-19T19:30:57.564Z,3.47
2023-04-19T19:33:51.880Z,4.90
2023-04-19T19:36:51.610Z,3.17
2023-04-19T19:39:39.035Z,4.40
2023-04-19T19:42:26.524Z,4.20
2023-04-19T19:45:14.090Z,3.37
2023-04-19T19:48:01.794Z,3.30
2023-04-19T19:51:13.401Z,4.10
2023-04-19T19:53:57.600Z,4.17
2023-04-19T19:57:25.198Z,4.30
2023-04-19T19:59:56.324Z,5.67
2023-04-19T20:02:54.878Z,4.13
2023-04-19T20:05:44.218Z,4.10
2023-04-19T20:08:32.036Z,4.73
2023-04-19T20:11:19.874Z,4.70
2023-04-19T20:14:07.354Z,3.30
2023-04-19T20:16:54.839Z,4.43
2023-04-19T20:19:45.080Z,4.83
2023-04-19T20:22:32.580Z,4.73
2023-04-19T20:25:20.192Z,4.53
2023-04-19T20:28:09.716Z,4.30
2023-04-19T20:30:57.222Z,5.40
2023-04-19T20:33:46.658Z,5.07
2023-04-19T20:36:34.136Z,4.47
2023-04-19T20:39:21.630Z,4.53
2023-04-19T20:42:09.105Z,4.57
2023-04-19T20:44:56.531Z,4.37
2023-04-19T20:47:44.010Z,4.13
2023-04-19T20:50:31.575Z,5.53
2023-04-19T20:53:19.087Z,4.87
2023-04-19T20:56:06.715Z,4.37
2023-04-19T20:58:54.312Z,4.10
2023-04-19T21:01:43.208Z,4.17
2023-04-19T21:04:31.184Z,4.87
2023-04-19T21:07:18.761Z,4.67
2023-04-19T21:10:07.318Z,4.13
2023-04-19T21:12:54.838Z,4.87
2023-04-19T21:15:42.345Z,4.87
2023-04-19T21:18:31.008Z,5.07
2023-04-19T21:21:18.500Z,4.37
2023-04-19T21:24:07.375Z,3.83
2023-04-19T21:26:54.874Z,4.43
2023-04-19T21:29:42.333Z,4.97
2023-04-19T21:32:30.039Z,3.93
2023-04-19T21:35:17.816Z,5.27
2023-04-19T21:38:05.247Z,5.33
2023-04-19T21:40:52.683Z,5.40
2023-04-19T21:43:40.247Z,4.10
2023-04-19T21:46:28.063Z,4.20
2023-04-19T21:49:15.786Z,5.10
2023-04-19T21:52:06.052Z,4.43
2023-04-19T21:54:53.493Z,5.50
2023-04-19T21:57:40.990Z,5.63
2023-04-19T22:00:28.895Z,5.03
2023-04-19T22:03:16.614Z,4.50
2023-04-19T22:06:04.921Z,5.87
2023-04-19T22:08:52.442Z,4.27
2023-04-19T22:11:40.772Z,4.70
2023-04-19T22:14:28.512Z,4.20
2023-04-19T22:17:18.842Z,4.50
2023-04-19T22:20:12.849Z,3.93
2023-04-19T22:23:00.659Z,5.33
2023-04-19T22:25:48.314Z,3.83
2023-04-19T22:28:36.142Z,4.13
2023-04-19T22:31:23.650Z,4.07
2023-04-19T22:34:11.203Z,3.93
2023-04-19T22:36:58.641Z,4.43
2023-04-19T22:39:46.166Z,3.67
2023-04-19T22:42:33.593Z,4.73
2023-04-19T22:45:21.055Z,4.33
2023-04-19T22:48:09.056Z,5.10
2023-04-19T22:50:57.046Z,4.60
2023-04-19T22:53:45.115Z,4.60
2023-04-19T22:56:32.595Z,4.80
2023-04-19T22:59:20.012Z,3.37
2023-04-19T23:02:07.579Z,2.83
2023-04-19T23:04:55.110Z,4.00
2023-04-19T23:07:43.968Z,3.73
2023-04-19T23:10:31.900Z,3.17
2023-04-19T23:13:20.031Z,3.47
2023-04-19T23:16:11.979Z,3.80
2023-04-19T23:19:00.752Z,4.13
2023-04-19T23:21:48.756Z,3.80
2023-04-19T23:24:36.437Z,4.30
2023-04-19T23:27:23.960Z,4.20
2023-04-19T23:30:11.876Z,4.47
2023-04-19T23:32:59.377Z,3.50
2023-04-19T23:35:47.044Z,3.43
2023-04-19T23:38:34.547Z,4.53
2023-04-19T23:41:22.190Z,4.67
2023-04-19T23:44:10.071Z,4.80
2023-04-19T23:46:57.770Z,3.73
2023-04-19T23:49:45.349Z,5.13
2023-04-19T23:52:32.917Z,3.73
2023-04-19T23:55:22.410Z,4.27
2023-04-19T23:58:09.874Z,3.90
